首页
METAR-TAF:

METAR-TAF

机场 :

温贝托·德尔加多机场

里斯本, 葡萄牙

纬度: 38-46N, 经度: 009-08W, 海拔: 114米

当前天气观测

该预报发布于30分钟前的20:30 UTC
风速11节,风向西北
温度 27°C
湿度 42%
气压 1015 hPa
能见度10公里或以上
1500米以下无云,无积雨云

METAR: LPPT 222030Z 31011KT CAVOK 27/13 Q1015

时间: 22:00 (21:00 UTC)

预报

该预报发布于4小时和0分钟前的17:00 UTC
预报有效从22日的 18点(UTC)到 23日的 24点(UTC)
风速8节,风向西转西北
能见度10公里或以上
1500米以下无云,无积雨云
成为
从 22日的 18点(UTC)到 22日的 20点(UTC)
风速10节,风向西北
成为
从 23日的 03点(UTC)到 23日的 06点(UTC)
风速3节,风向多变
成为
从 23日的 14点(UTC)到 23日的 17点(UTC)
风速12节,风向西北
成为
从 23日的 21点(UTC)到 23日的 24点(UTC)
风速10节,风向

TAF: LPPT 221700Z 2218/2324 29008KT CAVOK BECMG 2218/2220 32010KT BECMG 2303/2306 VRB03KT BECMG 2314/2317 31012KT BECMG 2321/2324 35010KT

超过4000个机场的气象观测和天气预报(METAR&TAF报告)。

可查询的气象台以黄色和红色小点在地图上表示。

将鼠标移到小点上方,可查看气象台名称。

然后点击查看天气观测和预报。

如需切换地图:点击带黑十字的绿色按钮放大地图;点击带横线的绿色按钮缩小地图;或者点击绿色箭头查看邻近地区的地图。


METAR-TAF: